createdAt,value
2022-08-23T00:00:16.323Z,17.90
2022-08-23T00:05:21.805Z,17.90
2022-08-23T00:10:24.515Z,17.80
2022-08-23T00:15:27.305Z,17.80
2022-08-23T00:20:30.030Z,17.80
2022-08-23T00:25:32.849Z,17.80
2022-08-23T00:30:36.460Z,17.80
2022-08-23T00:35:39.743Z,17.90
2022-08-23T00:40:48.101Z,17.80
2022-08-23T00:46:37.583Z,17.90
2022-08-23T00:51:53.292Z,17.90
2022-08-23T00:57:00.777Z,17.90
2022-08-23T01:02:05.641Z,17.90
2022-08-23T01:07:37.522Z,17.80
2022-08-23T01:12:46.654Z,17.80
2022-08-23T01:18:02.956Z,17.80
2022-08-23T01:23:30.887Z,17.80
2022-08-23T01:28:34.422Z,17.80
2022-08-23T01:33:39.419Z,17.80
2022-08-23T01:38:42.207Z,17.80
2022-08-23T01:43:44.997Z,17.80
2022-08-23T01:48:50.419Z,17.70
2022-08-23T01:53:53.259Z,17.80
2022-08-23T01:58:56.921Z,17.80
2022-08-23T02:04:05.867Z,17.80
2022-08-23T02:09:17.273Z,17.80
2022-08-23T02:14:23.041Z,17.80
2022-08-23T02:19:29.114Z,17.80
2022-08-23T02:24:32.613Z,17.80
2022-08-23T02:29:39.538Z,17.70
2022-08-23T02:34:51.061Z,17.70
2022-08-23T02:40:09.875Z,17.70
2022-08-23T02:45:13.998Z,17.70
2022-08-23T02:50:22.463Z,17.80
2022-08-23T02:55:25.773Z,17.80
2022-08-23T03:00:29.199Z,17.90
2022-08-23T03:05:33.203Z,17.90
2022-08-23T03:10:38.403Z,17.80
2022-08-23T03:15:41.499Z,17.80
2022-08-23T03:20:44.490Z,17.80
2022-08-23T03:25:48.900Z,17.70
2022-08-23T03:31:00.150Z,17.80
2022-08-23T03:36:06.577Z,17.70
2022-08-23T03:41:09.864Z,17.70
2022-08-23T03:46:23.220Z,17.80
2022-08-23T03:51:32.004Z,17.80
2022-08-23T03:56:40.318Z,17.80
2022-08-23T04:01:44.393Z,17.70
2022-08-23T04:06:47.655Z,17.60
2022-08-23T04:11:52.443Z,17.60
2022-08-23T04:16:55.741Z,17.70
2022-08-23T04:21:59.481Z,17.70
2022-08-23T04:27:07.775Z,17.70
2022-08-23T04:32:12.101Z,17.70
2022-08-23T04:37:16.756Z,17.80
2022-08-23T04:42:20.174Z,17.80
2022-08-23T04:47:26.349Z,17.90
2022-08-23T04:52:32.351Z,17.90
2022-08-23T04:57:35.554Z,18.00
2022-08-23T05:02:38.894Z,18.00
2022-08-23T05:07:43.124Z,18.00
2022-08-23T05:12:47.584Z,18.10
2022-08-23T05:17:52.816Z,18.30
2022-08-23T05:22:55.714Z,18.30
2022-08-23T05:28:30.929Z,18.40
2022-08-23T05:33:36.065Z,18.60
2022-08-23T05:38:40.104Z,18.60
2022-08-23T05:43:44.556Z,18.70
2022-08-23T05:48:51.313Z,18.80
2022-08-23T05:54:01.471Z,18.90
2022-08-23T05:59:12.360Z,18.80
2022-08-23T06:04:17.812Z,18.80
2022-08-23T06:09:21.352Z,18.70
2022-08-23T06:14:24.359Z,18.90
2022-08-23T06:19:27.373Z,18.80
2022-08-23T06:24:42.032Z,18.70
2022-08-23T06:29:50.082Z,18.80
2022-08-23T06:35:33.109Z,19.00
2022-08-23T06:40:35.674Z,19.40
2022-08-23T06:46:10.685Z,19.60
2022-08-23T06:51:22.404Z,19.60
2022-08-23T06:56:31.697Z,19.60
2022-08-23T07:01:52.754Z,19.40
2022-08-23T07:07:07.130Z,20.00
2022-08-23T07:12:14.014Z,20.10
2022-08-23T07:17:18.800Z,20.30
2022-08-23T07:22:21.739Z,20.50
2022-08-23T07:27:24.898Z,20.70
2022-08-23T07:32:39.102Z,20.70
2022-08-23T07:37:53.239Z,21.00
2022-08-23T07:42:59.254Z,21.20
2022-08-23T07:48:03.131Z,21.80
2022-08-23T07:53:12.783Z,22.00
2022-08-23T07:58:17.771Z,22.00
2022-08-23T08:03:31.701Z,22.20
2022-08-23T08:08:44.494Z,22.40
2022-08-23T08:13:49.804Z,22.70
2022-08-23T08:18:57.034Z,23.10
2022-08-23T08:24:20.154Z,23.50
2022-08-23T08:29:27.376Z,23.30
2022-08-23T08:34:30.494Z,23.00
2022-08-23T08:39:33.885Z,23.20
2022-08-23T08:45:02.782Z,23.30
2022-08-23T08:50:45.142Z,23.60
2022-08-23T08:55:57.599Z,24.10
2022-08-23T09:01:04.169Z,23.80
2022-08-23T09:06:23.575Z,23.50
2022-08-23T09:11:26.499Z,23.60
2022-08-23T09:16:58.321Z,24.40
2022-08-23T09:22:17.708Z,24.90
2022-08-23T09:27:20.802Z,25.10
2022-08-23T09:32:44.503Z,25.50
2022-08-23T09:38:15.639Z,25.60
2022-08-23T09:43:26.462Z,25.70
2022-08-23T09:48:41.043Z,25.60
2022-08-23T09:54:10.392Z,25.30
2022-08-23T09:59:26.795Z,25.30
2022-08-23T10:04:42.351Z,25.10
2022-08-23T10:09:47.195Z,25.10
2022-08-23T10:14:50.754Z,25.10
2022-08-23T10:20:13.273Z,25.30
2022-08-23T10:25:31.535Z,25.30
2022-08-23T10:30:46.762Z,25.80
2022-08-23T10:36:27.946Z,26.20
2022-08-23T10:41:58.925Z,25.60
2022-08-23T10:47:18.973Z,26.20
2022-08-23T10:52:41.133Z,27.00
2022-08-23T10:57:47.879Z,26.60
2022-08-23T11:03:28.890Z,25.80
2022-08-23T11:08:37.204Z,25.80
2022-08-23T11:13:53.779Z,25.40
2022-08-23T11:18:57.627Z,25.60
2022-08-23T11:24:14.864Z,25.60
2022-08-23T11:29:25.153Z,26.10
2022-08-23T11:35:11.644Z,26.50
2022-08-23T11:40:39.343Z,26.30
2022-08-23T11:45:47.731Z,26.30
2022-08-23T11:50:57.707Z,27.30
2022-08-23T11:56:26.662Z,27.70
2022-08-23T12:01:39.461Z,26.90
2022-08-23T12:06:53.067Z,26.50
2022-08-23T12:11:55.983Z,27.30
2022-08-23T12:17:17.114Z,28.80
2022-08-23T12:22:27.373Z,29.40
2022-08-23T12:27:50.838Z,29.10
2022-08-23T12:33:17.312Z,29.30
2022-08-23T12:38:40.858Z,29.90
2022-08-23T12:43:56.218Z,29.40
2022-08-23T12:48:59.196Z,28.90
2022-08-23T12:54:13.764Z,28.40
2022-08-23T12:59:49.293Z,28.40
2022-08-23T13:04:53.979Z,28.80
2022-08-23T13:09:57.023Z,29.00
2022-08-23T13:15:02.011Z,29.20
2022-08-23T13:20:07.505Z,28.70
2022-08-23T13:25:32.226Z,29.20
2022-08-23T13:30:39.101Z,29.30
2022-08-23T13:35:50.032Z,28.90
2022-08-23T13:41:00.626Z,29.00
2022-08-23T13:46:15.713Z,28.60
2022-08-23T13:51:24.599Z,28.40
2022-08-23T13:56:30.238Z,28.60
2022-08-23T14:01:33.379Z,28.60
2022-08-23T14:06:36.179Z,29.00
2022-08-23T14:11:39.538Z,28.40
2022-08-23T14:16:42.637Z,28.20
2022-08-23T14:21:47.109Z,28.30
2022-08-23T14:26:52.443Z,28.20
2022-08-23T14:31:56.892Z,28.70
2022-08-23T14:42:24.361Z,28.80
2022-08-23T14:47:27.732Z,28.70
2022-08-23T14:52:31.000Z,28.90
2022-08-23T14:57:34.001Z,28.70
2022-08-23T15:02:36.960Z,28.90
2022-08-23T15:07:40.709Z,28.30
2022-08-23T15:13:12.931Z,28.10
2022-08-23T15:18:09.860Z,27.90
2022-08-23T15:23:12.817Z,28.10
2022-08-23T15:28:17.221Z,27.80
2022-08-23T15:33:24.690Z,27.60
2022-08-23T15:38:33.699Z,27.10
2022-08-23T15:43:36.641Z,27.30
2022-08-23T15:48:46.721Z,27.30
2022-08-23T15:53:49.923Z,26.90
2022-08-23T15:58:54.466Z,26.70
2022-08-23T16:03:57.758Z,26.20
2022-08-23T16:09:00.819Z,25.90
2022-08-23T16:14:04.279Z,26.00
2022-08-23T16:19:08.922Z,25.80
2022-08-23T16:24:12.019Z,25.70
2022-08-23T16:29:17.562Z,25.40
2022-08-23T16:34:20.880Z,25.20
2022-08-23T16:39:24.473Z,25.10
2022-08-23T16:44:28.130Z,25.00
2022-08-23T16:49:33.770Z,24.90
2022-08-23T16:54:37.698Z,24.70
2022-08-23T16:59:40.755Z,24.50
2022-08-23T17:04:43.548Z,24.30
2022-08-23T17:09:47.027Z,24.10
2022-08-23T17:14:51.578Z,23.90
2022-08-23T17:19:54.577Z,23.70
2022-08-23T17:24:57.788Z,23.50
2022-08-23T17:30:00.568Z,23.20
2022-08-23T17:35:03.372Z,22.90
2022-08-23T17:40:11.210Z,22.70
2022-08-23T17:45:16.385Z,22.40
2022-08-23T17:50:20.695Z,22.10
2022-08-23T17:55:23.821Z,21.90
2022-08-23T18:00:27.472Z,21.60
2022-08-23T18:05:33.605Z,21.30
2022-08-23T18:10:37.038Z,21.20
2022-08-23T18:15:40.036Z,20.90
2022-08-23T18:20:43.423Z,20.70
2022-08-23T18:25:46.418Z,20.50
2022-08-23T18:30:55.056Z,20.50
2022-08-23T18:35:58.211Z,20.40
2022-08-23T18:41:01.316Z,20.40
2022-08-23T18:46:05.318Z,20.30
2022-08-23T18:51:17.674Z,20.30
2022-08-23T18:56:21.101Z,20.10
2022-08-23T19:01:29.767Z,20.20
2022-08-23T19:06:32.900Z,20.10
2022-08-23T19:11:36.708Z,19.90
2022-08-23T19:16:44.484Z,20.00
2022-08-23T19:21:50.706Z,20.20
2022-08-23T19:26:54.699Z,20.20
2022-08-23T19:31:57.693Z,20.40
2022-08-23T19:37:01.629Z,20.60
2022-08-23T19:42:11.029Z,20.70
2022-08-23T19:47:20.311Z,20.70
2022-08-23T19:52:24.939Z,20.60
2022-08-23T19:57:28.449Z,20.50
2022-08-23T20:02:31.216Z,20.40
2022-08-23T20:07:34.977Z,20.40
2022-08-23T20:12:37.769Z,20.30
2022-08-23T20:17:41.504Z,20.20
2022-08-23T20:23:03.128Z,20.20
2022-08-23T20:28:08.611Z,20.30
2022-08-23T20:33:11.764Z,20.30
2022-08-23T20:38:31.360Z,20.30
2022-08-23T20:43:39.341Z,20.30
2022-08-23T20:48:42.648Z,20.30
2022-08-23T20:53:46.207Z,20.30
2022-08-23T20:58:49.939Z,20.30
2022-08-23T21:03:52.979Z,20.20
2022-08-23T21:09:00.308Z,20.20
2022-08-23T21:14:03.469Z,20.20
2022-08-23T21:19:06.941Z,20.20
2022-08-23T21:24:11.328Z,20.20
2022-08-23T21:29:14.279Z,20.10
2022-08-23T21:34:17.909Z,20.10
2022-08-23T21:39:20.918Z,20.10
2022-08-23T21:44:25.510Z,20.10
2022-08-23T21:49:28.199Z,20.10
2022-08-23T21:54:31.089Z,20.10
2022-08-23T21:59:34.284Z,20.10
2022-08-23T22:04:37.211Z,20.10
2022-08-23T22:09:40.155Z,20.10
2022-08-23T22:14:43.001Z,20.00
2022-08-23T22:19:46.000Z,20.00
2022-08-23T22:24:49.019Z,20.00
2022-08-23T22:29:51.771Z,20.00
2022-08-23T22:34:54.490Z,20.00
2022-08-23T22:39:57.746Z,20.10
2022-08-23T22:45:01.050Z,20.10
2022-08-23T22:50:04.493Z,20.10
2022-08-23T22:55:07.510Z,20.10
2022-08-23T23:00:11.773Z,20.10
2022-08-23T23:05:14.539Z,20.00
2022-08-23T23:10:17.369Z,20.00
2022-08-23T23:15:20.160Z,20.00
2022-08-23T23:20:39.433Z,20.00
2022-08-23T23:25:43.750Z,20.00
2022-08-23T23:30:51.987Z,20.00
2022-08-23T23:35:54.774Z,19.90
2022-08-23T23:40:57.498Z,19.90
2022-08-23T23:46:05.730Z,19.90
2022-08-23T23:51:14.820Z,19.80
2022-08-23T23:56:19.045Z,19.80
